ASN logo
ASN Wikibase Occurrence # 269773
Last updated: 1 December 2021
This information is added by users of ASN. Neither ASN nor the Flight Safety Foundation are responsible for the completeness or correctness of this information. If you feel this information is incomplete or incorrect, you can submit corrected information.

Date:21-NOV-2021
Time:19:20
Type:Silhouette image of generic C310 model; specific model in this crash may look slightly different
Cessna T310R
Owner/operator:Private
Registration: N310JA
MSN: 310R-1319
Fatalities:Fatalities: 3 / Occupants: 3
Other fatalities:0
Aircraft damage: Written off (damaged beyond repair)
Category:Accident
Location:near Chadron Municipal Airport (CDR/KCDR), NE -   United States of America
Phase: Initial climb
Nature:Private
Departure airport:Chadron Airport, NE (CDR/KCDR)
Destination airport:
Investigating agency: NTSB
Narrative:
The aircraft impacted the terrain and a post crash fire ensued shortly after takeoff from runway 30 near Chadron Municipal Airport (CDR/KCDR), Dawes County, Nebraska.
The pilot and two passengers were fatally injured.

The final ADS-B return was located about 0.8 nautical miles northwest of the departure end of runway 30, at a indicated altitude of 3,500' MSL, 3,200' Pressure Altitude, which is about 200' above the airport elevation of 3300' MSL. Groundspeed at that time was 139 knots. Density altitude was approx. 1500' at takeoff.

METAR KCDR 220253Z AUTO 24004KT 10SM CLR M04/M09 A3024 RMK (7:53 PM local)
METAR KCDR 220153Z AUTO 00000KT 10SM CLR M02/M08 A3024 RMK (6:53 PM local)

Sources:

https://ruralradio.com/krvn/news/three-killed-in-sunday-night-plane-crash-near-chadron/

https://registry.faa.gov/AircraftInquiry/Search/NNumberResult?nNumberTxt=310JA
https://globe.adsbexchange.com/?icao=a3479a&lat=42.837&lon=-103.117&zoom=13.6&showTrace=2021-11-22&leg=2&trackLabels

Location


Revision history:

Date/timeContributorUpdates
22-Nov-2021 15:24 gerard57 Added
22-Nov-2021 15:53 harro Updated [Aircraft type, Registration, Cn, Location, Departure airport, Source]
22-Nov-2021 15:55 harro Updated [Departure airport]
22-Nov-2021 18:44 joelbeniciocaetano Updated [Source]
22-Nov-2021 20:17 aaronwk Updated [Time, Phase, Source, Narrative]
23-Nov-2021 06:56 johnwg Updated [Location, Source, Narrative, Category]
24-Nov-2021 20:15 Captain Adam Updated [Location, Source, Narrative]

Corrections or additions? ... Edit this accident description